Time;durP1;ratioP1;P1;durP2;ratioP2;P2;SDS_P1;SDS_P2;PMS_P1;PMS_P2;Temp;Humidity;BMP_temperature;BMP_pressure;BME280_temperature;BME280_humidity;BME280_pressure;Samples;Min_cycle;Max_cycle;Signal;HPM_P1;HPM_P2
2022/12/26 00:01:39;;;;;;;5.70;2.20;;;9.60;99.90;9.60;100067.00;;;;4911829;28;100166;-72
2022/12/26 00:04:05;;;;;;;4.57;2.50;;;9.70;99.90;9.60;100076.00;;;;4905169;28;87736;-72
2022/12/26 00:06:31;;;;;;;3.83;1.97;;;9.70;99.90;9.70;100076.00;;;;4911512;28;118502;-72
2022/12/26 00:08:59;;;;;;;1.90;1.73;;;9.80;99.90;9.60;100085.00;;;;4889871;28;88857;-72
2022/12/26 00:11:26;;;;;;;4.30;2.80;;;9.70;99.90;9.70;100083.00;;;;4907984;28;87673;-74
2022/12/26 00:14:05;;;;;;;3.03;1.93;;;9.70;99.90;9.70;100074.00;;;;4907303;28;103332;-74
2022/12/26 00:16:31;;;;;;;4.43;2.60;;;9.70;99.90;9.70;100082.00;;;;4902856;28;105164;-74
2022/12/26 00:18:57;;;;;;;3.13;1.97;;;9.80;99.90;9.70;100076.00;;;;4892885;28;88308;-73
2022/12/26 00:21:26;;;;;;;2.30;1.87;;;9.80;99.90;9.80;100069.00;;;;4910333;28;87802;-75
2022/12/26 00:23:54;;;;;;;6.03;2.33;;;9.80;99.90;9.80;100068.00;;;;4910833;28;87806;-74
2022/12/26 00:26:22;;;;;;;2.67;2.00;;;9.80;99.90;9.80;100069.00;;;;4912307;28;95384;-72
2022/12/26 00:28:48;;;;;;;5.13;2.10;;;9.80;99.90;9.80;100069.00;;;;4908309;28;88400;-72
2022/12/26 00:31:20;;;;;;;5.27;2.13;;;10.00;99.90;9.80;100082.00;;;;4906789;28;98832;-73
2022/12/26 00:33:46;;;;;;;3.80;2.17;;;9.90;99.90;9.80;100089.00;;;;4893106;28;89085;-71
2022/12/26 00:36:23;;;;;;;2.30;2.10;;;9.90;99.90;9.80;100085.00;;;;4907274;28;116717;-71
2022/12/26 00:38:50;;;;;;;3.87;2.03;;;9.90;99.90;9.80;100093.00;;;;4891902;28;89916;-70
2022/12/26 00:41:17;;;;;;;3.80;2.57;;;9.90;99.90;9.80;100107.00;;;;4907656;28;87646;-73
2022/12/26 00:43:44;;;;;;;3.93;2.60;;;9.90;99.90;9.80;100101.00;;;;4891445;28;92387;-71
2022/12/26 00:46:10;;;;;;;5.43;2.53;;;9.90;99.90;9.90;100088.00;;;;4906757;28;116941;-71
2022/12/26 00:48:36;;;;;;;2.73;2.10;;;10.00;99.90;9.90;100086.00;;;;4911858;28;88797;-71
2022/12/26 00:51:03;;;;;;;1.77;1.63;;;9.90;99.90;9.90;100084.00;;;;4905293;28;109095;-71
2022/12/26 00:53:28;;;;;;;4.37;3.03;;;10.00;99.90;9.80;100078.00;;;;4908828;28;87806;-71
2022/12/26 00:55:54;;;;;;;6.27;2.20;;;9.90;99.90;9.80;100057.00;;;;4909364;28;103909;-71
2022/12/26 00:58:21;;;;;;;1.63;1.53;;;9.90;99.90;9.80;100058.00;;;;4908076;28;118848;-71
2022/12/26 01:00:47;;;;;;;2.87;2.20;;;9.90;99.90;9.70;100063.00;;;;4913882;28;88074;-70
2022/12/26 01:03:14;;;;;;;2.10;1.70;;;9.80;99.90;9.70;100048.00;;;;4909688;28;90484;-70
2022/12/26 01:05:42;;;;;;;2.37;2.00;;;9.80;99.90;9.70;100059.00;;;;4908428;28;88715;-70
2022/12/26 01:08:08;;;;;;;2.23;2.00;;;9.80;99.90;9.70;100065.00;;;;4910579;28;88705;-70
2022/12/26 01:10:34;;;;;;;2.27;1.50;;;9.80;99.90;9.70;100063.00;;;;4893194;28;90459;-70
2022/12/26 01:12:59;;;;;;;2.20;1.70;;;9.70;99.90;9.70;100048.00;;;;4907456;28;108315;-70
2022/12/26 01:15:25;;;;;;;2.23;2.00;;;9.80;99.90;9.70;100049.00;;;;4906672;28;109258;-70
2022/12/26 01:17:51;;;;;;;2.50;2.10;;;9.60;99.90;9.70;100058.00;;;;4908118;28;116968;-71
2022/12/26 01:20:17;;;;;;;2.53;1.90;;;9.80;99.90;9.70;100058.00;;;;4907076;28;110458;-70
2022/12/26 01:22:42;;;;;;;2.47;2.10;;;9.80;99.90;9.70;100065.00;;;;4907600;28;99040;-71
2022/12/26 01:25:10;;;;;;;3.87;2.00;;;9.80;99.90;9.80;100044.00;;;;4905445;28;117955;-72
2022/12/26 01:27:36;;;;;;;2.30;1.63;;;9.80;99.90;9.80;100034.00;;;;4891927;28;116313;-72
2022/12/26 01:30:03;;;;;;;2.63;1.97;;;9.80;99.90;9.80;100033.00;;;;4909331;28;88320;-70
2022/12/26 01:32:29;;;;;;;3.07;1.87;;;9.90;99.90;9.80;100054.00;;;;4908079;28;87808;-70
2022/12/26 01:34:55;;;;;;;2.53;1.73;;;9.90;99.90;9.80;100052.00;;;;4907765;28;107686;-70
2022/12/26 01:37:22;;;;;;;1.63;1.30;;;9.90;99.90;9.80;100048.00;;;;4919330;28;88406;-71
2022/12/26 01:39:48;;;;;;;1.33;1.20;;;9.90;99.90;9.80;100045.00;;;;4929315;28;87182;-70
2022/12/26 01:42:18;;;;;;;1.83;1.20;;;9.90;99.90;9.90;100058.00;;;;4923260;28;90921;-70
2022/12/26 01:45:16;;;;;;;1.90;1.67;;;9.90;99.90;9.90;100052.00;;;;4908881;28;88039;-72
2022/12/26 01:47:57;;;;;;;2.10;1.37;;;10.00;99.90;9.90;100048.00;;;;4883322;28;88812;-72
2022/12/26 01:50:38;;;;;;;3.23;1.20;;;10.00;99.90;9.90;100048.00;;;;4881683;28;88033;-71
2022/12/26 01:53:13;;;;;;;2.07;1.23;;;10.00;99.90;9.90;100044.00;;;;4886453;28;95204;-72
2022/12/26 01:55:40;;;;;;;2.70;1.50;;;10.00;99.90;10.00;100046.00;;;;4893719;28;106982;-71
2022/12/26 01:58:16;;;;;;;2.40;1.77;;;10.10;99.90;10.00;100044.00;;;;4909083;28;117395;-71
2022/12/26 02:00:42;;;;;;;2.53;1.03;;;10.10;99.90;10.00;100043.00;;;;4909548;28;97101;-70
2022/12/26 02:05:56;;;;;;;1.93;1.07;;;10.10;99.90;10.10;100026.00;;;;4908616;28;87226;-72
2022/12/26 02:08:29;;;;;;;1.77;1.17;;;10.20;99.90;10.20;100030.00;;;;4912837;28;98508;-72
2022/12/26 02:11:26;;;;;;;1.43;1.23;;;10.20;99.90;10.30;100038.00;;;;4881124;28;88035;-71
2022/12/26 02:13:53;;;;;;;1.57;1.07;;;10.30;99.90;10.40;100031.00;;;;4893330;28;88727;-69
2022/12/26 02:16:20;;;;;;;1.47;0.97;;;10.40;99.90;10.50;100032.00;;;;4911821;28;93304;-69
2022/12/26 02:18:45;;;;;;;1.67;1.40;;;10.50;99.90;10.60;100024.00;;;;4909018;28;98894;-71
2022/12/26 02:21:31;;;;;;;1.70;1.40;;;10.60;99.90;10.70;100034.00;;;;4908300;28;109061;-71
2022/12/26 02:24:40;;;;;;;0.70;0.67;;;10.70;99.90;10.80;100041.00;;;;4912221;28;93059;-69
2022/12/26 02:27:52;;;;;;;2.47;1.33;;;10.90;99.90;11.00;100018.00;;;;4909260;28;88549;-70
2022/12/26 02:30:38;;;;;;;0.90;0.70;;;11.00;99.90;11.10;100026.00;;;;4897319;28;87817;-71
2022/12/26 02:33:21;;;;;;;1.87;1.20;;;11.10;99.90;11.20;100032.00;;;;4887007;28;87021;-71
2022/12/26 02:36:10;;;;;;;1.63;1.13;;;11.20;99.90;11.30;100037.00;;;;4910261;28;87728;-73
2022/12/26 02:38:54;;;;;;;2.10;1.10;;;11.30;99.90;11.40;100029.00;;;;4899662;28;90192;-71
2022/12/26 02:41:30;;;;;;;1.10;0.57;;;11.40;99.90;11.40;100028.00;;;;4909232;28;88941;-72
2022/12/26 02:47:37;;;;;;;3.03;1.20;;;11.50;99.90;11.60;100013.00;;;;4912675;28;87917;-72
2022/12/26 03:15:03;;;;;;;4.37;0.93;;;12.00;99.90;11.90;100032.00;;;;4897066;28;87847;-70
2022/12/26 03:17:42;;;;;;;1.37;0.80;;;12.00;99.90;12.00;100037.00;;;;4894488;28;88554;-71
2022/12/26 03:20:16;;;;;;;1.43;0.70;;;12.00;99.90;12.00;100033.00;;;;4885944;28;88097;-71
2022/12/26 03:22:53;;;;;;;1.93;1.40;;;12.10;99.90;12.00;100033.00;;;;4895844;28;88183;-71
2022/12/26 03:28:20;;;;;;;1.30;1.00;;;12.10;99.90;12.00;100017.00;;;;4904037;28;87886;-73
2022/12/26 03:30:48;;;;;;;2.10;1.10;;;12.00;99.90;12.00;100029.00;;;;4896814;28;97759;-73
2022/12/26 03:36:54;;;;;;;4.33;0.80;;;12.00;99.90;11.90;100026.00;;;;4892247;28;87793;-69
2022/12/26 04:20:09;;;;;;;0.97;0.93;;;12.00;99.90;11.90;100057.00;;;;4895452;28;88039;-69
2022/12/26 04:45:40;;;;;;;1.30;0.57;;;12.20;99.90;12.20;100079.00;;;;4889577;28;87884;-68
2022/12/26 04:50:52;;;;;;;0.90;0.77;;;12.30;99.90;12.20;100081.00;;;;4887818;28;88056;-70
2022/12/26 04:53:19;;;;;;;1.00;0.90;;;12.30;99.90;12.20;100084.00;;;;4909797;28;101431;-70
2022/12/26 04:55:45;;;;;;;1.03;0.77;;;12.20;99.90;12.20;100075.00;;;;4909113;28;101388;-69
2022/12/26 04:58:11;;;;;;;0.80;0.80;;;12.20;99.90;12.10;100065.00;;;;4906718;28;118298;-72
2022/12/26 05:00:36;;;;;;;2.20;0.80;;;12.20;99.90;12.10;100073.00;;;;4890513;28;114671;-71
2022/12/26 05:11:17;;;;;;;1.40;1.00;;;12.20;99.90;12.20;100088.00;;;;4907032;28;87972;-71
2022/12/26 05:13:43;;;;;;;1.40;0.90;;;12.20;99.90;12.30;100082.00;;;;4908402;28;97986;-71
2022/12/26 05:29:57;;;;;;;0.97;0.80;;;12.60;99.90;12.60;100078.00;;;;4892875;28;87991;-70
2022/12/26 05:35:07;;;;;;;2.93;1.23;;;12.60;99.90;12.60;100079.00;;;;4909028;28;87936;-71
2022/12/26 05:37:34;;;;;;;3.60;0.90;;;12.60;99.90;12.60;100081.00;;;;4896869;28;99603;-70
2022/12/26 05:40:00;;;;;;;1.20;0.70;;;12.60;99.90;12.60;100079.00;;;;4907769;28;89174;-68
2022/12/26 05:42:26;;;;;;;1.87;1.47;;;12.60;99.90;12.60;100092.00;;;;4911317;28;104124;-72
2022/12/26 05:44:51;;;;;;;1.30;0.93;;;12.60;99.90;12.60;100080.00;;;;4910353;28;110090;-69
2022/12/26 05:47:17;;;;;;;0.73;0.73;;;13.30;99.90;12.60;100086.00;;;;4910007;28;90327;-71
2022/12/26 05:49:42;;;;;;;0.90;0.90;;;12.60;99.90;12.60;100093.00;;;;4912985;28;116252;-70
2022/12/26 05:52:08;;;;;;;0.93;0.83;;;12.60;99.90;12.60;100088.00;;;;4909894;28;115964;-71
2022/12/26 05:54:34;;;;;;;1.03;0.80;;;12.60;99.90;12.60;100086.00;;;;4909427;28;110058;-71
2022/12/26 05:57:00;;;;;;;0.70;0.60;;;12.70;99.90;12.60;100080.00;;;;4907263;28;93577;-69
2022/12/26 05:59:26;;;;;;;1.20;0.97;;;12.60;99.90;12.60;100085.00;;;;4913769;28;87756;-72
2022/12/26 06:01:52;;;;;;;0.70;0.70;;;12.60;99.90;12.60;100090.00;;;;4911559;28;99633;-72
2022/12/26 06:04:18;;;;;;;1.03;0.93;;;12.60;99.90;12.60;100092.00;;;;4910598;28;109312;-70
2022/12/26 06:06:43;;;;;;;1.87;0.90;;;12.60;99.90;12.50;100095.00;;;;4912260;28;108245;-68
2022/12/26 06:09:09;;;;;;;1.60;1.30;;;12.50;99.90;12.60;100101.00;;;;4909701;28;118484;-70
2022/12/26 06:11:35;;;;;;;1.10;1.00;;;12.60;99.90;12.60;100098.00;;;;4909269;28;117499;-68
2022/12/26 06:14:00;;;;;;;1.17;1.07;;;12.60;99.90;12.60;100086.00;;;;4907835;28;111703;-69
2022/12/26 06:16:26;;;;;;;1.50;0.97;;;12.60;99.90;12.60;100079.00;;;;4910508;28;88149;-70
2022/12/26 06:18:53;;;;;;;1.33;0.80;;;12.60;99.90;12.70;100083.00;;;;4910742;28;115250;-70
2022/12/26 06:21:20;;;;;;;1.20;0.87;;;12.60;99.90;12.70;100078.00;;;;4913329;28;108408;-70
2022/12/26 06:23:48;;;;;;;1.70;1.03;;;12.70;99.90;12.60;100063.00;;;;4924305;28;87813;-70
2022/12/26 06:26:14;;;;;;;1.30;0.70;;;12.70;99.90;12.60;100070.00;;;;4929719;28;87988;-70
2022/12/26 06:28:41;;;;;;;1.97;0.87;;;12.70;99.90;12.60;100070.00;;;;4932615;28;87806;-69
2022/12/26 06:31:17;;;;;;;1.37;0.90;;;12.60;99.90;12.60;100082.00;;;;4915156;28;90497;-70
2022/12/26 06:33:43;;;;;;;2.27;1.03;;;12.60;99.90;12.60;100075.00;;;;4907696;28;87904;-72
2022/12/26 06:36:12;;;;;;;1.63;1.13;;;12.70;99.90;12.60;100089.00;;;;4909310;28;87882;-71
2022/12/26 06:38:38;;;;;;;2.60;1.17;;;13.10;99.90;12.60;100081.00;;;;4910616;28;87318;-69
2022/12/26 06:41:05;;;;;;;1.47;0.80;;;12.60;99.90;12.60;100075.00;;;;4908398;28;87928;-71
2022/12/26 06:43:31;;;;;;;0.87;0.83;;;12.60;99.90;12.60;100076.00;;;;4894880;28;87759;-69
2022/12/26 06:45:59;;;;;;;3.27;0.90;;;12.60;99.90;12.60;100085.00;;;;4909756;28;108919;-71
2022/12/26 06:48:25;;;;;;;0.97;0.80;;;12.60;99.90;12.60;100087.00;;;;4908714;28;88437;-68
2022/12/26 06:50:53;;;;;;;1.70;0.80;;;12.60;99.90;12.60;100106.00;;;;4910586;28;89119;-71
2022/12/26 06:53:20;;;;;;;1.43;0.70;;;12.60;99.90;12.60;100094.00;;;;4890358;28;87902;-70
2022/12/26 06:55:46;;;;;;;0.77;0.77;;;12.60;99.90;12.60;100087.00;;;;4913279;28;87860;-70
2022/12/26 06:58:12;;;;;;;3.37;1.30;;;12.60;99.90;12.60;100106.00;;;;4906229;28;87980;-70
2022/12/26 07:00:37;;;;;;;2.93;1.00;;;12.60;99.90;12.60;100121.00;;;;4906012;28;118028;-71
2022/12/26 07:03:03;;;;;;;2.13;1.10;;;12.60;99.90;12.60;100139.00;;;;4907127;28;110004;-72
2022/12/26 07:05:29;;;;;;;2.13;1.00;;;12.60;99.90;12.50;100131.00;;;;4908848;28;88347;-71
2022/12/26 07:07:55;;;;;;;1.83;1.23;;;12.60;99.90;12.50;100123.00;;;;4904000;28;109022;-70
2022/12/26 07:10:21;;;;;;;2.37;1.00;;;12.50;99.90;12.40;100136.00;;;;4906016;28;115945;-71
2022/12/26 07:12:47;;;;;;;2.57;1.10;;;12.50;99.90;12.40;100131.00;;;;4907315;28;98189;-70
2022/12/26 07:15:14;;;;;;;1.37;0.93;;;12.40;99.90;12.50;100144.00;;;;4909257;28;87936;-67
2022/12/26 07:17:40;;;;;;;1.20;1.10;;;12.50;99.90;12.50;100137.00;;;;4904671;28;95263;-70
2022/12/26 07:20:07;;;;;;;1.10;0.97;;;12.50;99.90;12.60;100137.00;;;;4906084;28;88249;-69
2022/12/26 07:22:32;;;;;;;1.83;1.00;;;12.50;99.90;12.60;100138.00;;;;4903502;28;103512;-69
2022/12/26 07:24:58;;;;;;;0.97;0.80;;;12.60;99.90;12.60;100134.00;;;;4906266;28;108454;-71
2022/12/26 07:27:24;;;;;;;1.67;0.97;;;12.60;99.90;12.60;100128.00;;;;4904600;28;116581;-69
2022/12/26 07:29:49;;;;;;;1.37;1.17;;;12.70;99.90;12.60;100110.00;;;;4902892;28;116029;-72
2022/12/26 07:32:15;;;;;;;0.90;0.90;;;12.60;99.90;12.60;100122.00;;;;4904457;28;109651;-70
2022/12/26 07:34:41;;;;;;;1.43;1.03;;;12.90;99.90;12.60;100151.00;;;;4903147;28;109311;-69
2022/12/26 07:37:08;;;;;;;0.80;0.77;;;12.60;99.90;12.60;100159.00;;;;4903475;28;117777;-70
2022/12/26 07:39:34;;;;;;;1.73;0.80;;;12.70;99.90;12.60;100150.00;;;;4906324;28;118235;-71
2022/12/26 07:42:00;;;;;;;1.17;1.07;;;12.60;99.90;12.60;100146.00;;;;4903706;28;87938;-69
2022/12/26 07:44:28;;;;;;;1.10;1.00;;;12.60;99.90;12.60;100142.00;;;;4904711;28;88100;-71
2022/12/26 07:46:55;;;;;;;1.60;1.33;;;12.60;99.90;12.60;100158.00;;;;4906163;28;89123;-71
2022/12/26 07:49:21;;;;;;;2.03;0.83;;;12.60;99.90;12.60;100160.00;;;;4906519;28;87764;-72
2022/12/26 07:51:48;;;;;;;1.87;0.93;;;12.60;99.90;12.70;100163.00;;;;4907797;28;87233;-69
2022/12/26 07:54:14;;;;;;;1.47;1.20;;;12.60;99.90;12.70;100168.00;;;;4905562;28;87818;-70
2022/12/26 07:56:40;;;;;;;0.97;0.70;;;12.70;99.90;12.70;100165.00;;;;4865658;28;88446;-71
2022/12/26 07:59:08;;;;;;;1.47;1.10;;;12.70;99.90;12.80;100159.00;;;;4905452;28;89507;-71
2022/12/26 08:01:34;;;;;;;1.03;0.83;;;12.70;99.90;12.80;100157.00;;;;4888655;28;102105;-70
2022/12/26 08:03:59;;;;;;;0.73;0.60;;;12.80;99.90;12.80;100163.00;;;;4902079;28;109737;-70
2022/12/26 08:06:25;;;;;;;2.00;1.20;;;12.80;99.90;12.80;100151.00;;;;4901364;28;118911;-68
2022/12/26 08:08:51;;;;;;;3.63;1.00;;;12.80;99.90;12.80;100150.00;;;;4905628;28;118624;-69
2022/12/26 08:11:21;;;;;;;1.53;1.17;;;12.90;99.90;12.90;100148.00;;;;4908620;28;87657;-70
2022/12/26 08:13:47;;;;;;;1.53;1.17;;;12.90;99.90;12.90;100156.00;;;;4907910;28;88178;-69
2022/12/26 08:16:13;;;;;;;5.27;1.03;;;12.90;99.90;12.90;100142.00;;;;4904981;28;99032;-71
2022/12/26 08:18:39;;;;;;;1.87;0.80;;;12.90;99.90;13.00;100145.00;;;;4904649;28;116852;-70
2022/12/26 08:21:05;;;;;;;1.90;0.93;;;12.90;99.90;13.00;100147.00;;;;4906666;28;111036;-72
2022/12/26 08:23:32;;;;;;;1.87;1.10;;;13.00;99.90;13.00;100147.00;;;;4867642;28;107659;-71
2022/12/26 08:25:58;;;;;;;0.90;0.70;;;13.00;99.90;13.00;100162.00;;;;4881557;28;88000;-72
2022/12/26 08:28:23;;;;;;;4.23;0.90;;;13.00;99.90;12.90;100151.00;;;;4902660;28;117354;-68
2022/12/26 08:30:49;;;;;;;1.17;0.97;;;13.00;99.90;13.00;100163.00;;;;4904745;28;108873;-69
2022/12/26 08:33:15;;;;;;;1.80;1.10;;;13.00;99.90;12.90;100155.00;;;;4906802;28;108878;-72
2022/12/26 08:35:41;;;;;;;1.30;0.90;;;12.90;99.90;12.90;100165.00;;;;4904059;28;109115;-70
2022/12/26 08:38:07;;;;;;;1.30;1.00;;;12.90;99.90;12.90;100153.00;;;;4906220;28;88253;-71
2022/12/26 08:40:33;;;;;;;0.80;0.80;;;12.90;99.90;12.90;100147.00;;;;4905373;28;110557;-69
2022/12/26 08:42:58;;;;;;;2.13;1.30;;;13.10;99.90;12.90;100161.00;;;;4902442;28;97791;-70
2022/12/26 08:45:24;;;;;;;1.50;1.10;;;12.90;99.90;12.90;100158.00;;;;4902613;28;115851;-70
2022/12/26 08:47:53;;;;;;;1.40;1.13;;;12.90;99.90;12.90;100170.00;;;;4904217;28;88665;-70
2022/12/26 08:50:19;;;;;;;0.80;0.77;;;13.00;99.90;13.00;100158.00;;;;4904239;28;88607;-70
2022/12/26 08:52:44;;;;;;;1.00;0.97;;;12.90;99.90;13.00;100169.00;;;;4901309;28;109378;-71
2022/12/26 08:55:10;;;;;;;1.20;1.10;;;13.00;99.90;13.00;100161.00;;;;4902746;28;118726;-69
2022/12/26 08:57:35;;;;;;;1.03;0.87;;;13.00;99.90;13.00;100168.00;;;;4904651;28;88984;-70
2022/12/26 09:00:03;;;;;;;1.53;0.90;;;13.00;99.90;13.00;100177.00;;;;4904729;28;110805;-69
2022/12/26 09:02:29;;;;;;;1.30;0.80;;;13.00;99.90;13.00;100178.00;;;;4902496;28;87936;-70
2022/12/26 09:04:54;;;;;;;1.40;0.73;;;13.10;99.90;13.10;100173.00;;;;4903300;28;117248;-69
2022/12/26 09:07:20;;;;;;;3.30;1.30;;;13.10;99.90;13.10;100171.00;;;;4905397;28;116560;-71
2022/12/26 09:09:47;;;;;;;1.47;1.13;;;11.80;99.90;13.10;100173.00;;;;4906014;28;87907;-72
2022/12/26 09:12:12;;;;;;;1.43;0.90;;;13.10;99.90;13.10;100161.00;;;;4890971;28;88883;-72
2022/12/26 09:14:38;;;;;;;1.40;1.00;;;13.10;99.90;13.10;100156.00;;;;4903520;28;87923;-70
2022/12/26 09:17:04;;;;;;;1.80;0.93;;;13.10;99.90;13.10;100163.00;;;;4908737;28;116189;-69
2022/12/26 09:19:31;;;;;;;1.53;0.90;;;13.10;99.90;13.10;100165.00;;;;4904941;28;109591;-71
2022/12/26 09:24:42;;;;;;;6.80;1.50;;;13.20;99.90;13.20;100180.00;;;;4908092;28;87772;-68
2022/12/26 09:27:09;;;;;;;1.10;0.87;;;13.20;99.90;13.30;100190.00;;;;4909458;28;117900;-69
2022/12/26 09:29:37;;;;;;;1.17;0.80;;;12.90;99.90;13.30;100197.00;;;;4908887;28;87116;-69
2022/12/26 09:32:03;;;;;;;1.23;1.10;;;13.30;99.90;13.40;100202.00;;;;4908017;28;87921;-68
2022/12/26 09:34:29;;;;;;;1.40;0.90;;;13.30;99.90;13.40;100197.00;;;;4883247;28;87921;-70
2022/12/26 09:36:55;;;;;;;2.57;1.10;;;13.40;99.90;13.40;100201.00;;;;4906411;28;116794;-69
2022/12/26 09:39:20;;;;;;;1.93;1.43;;;13.40;99.90;13.40;100195.00;;;;4910621;28;87863;-71
2022/12/26 09:42:14;;;;;;;1.20;0.93;;;13.30;99.90;13.40;100201.00;;;;4889604;28;88147;-70
2022/12/26 09:44:57;;;;;;;1.27;0.97;;;13.40;99.90;13.40;100188.00;;;;4893635;28;88166;-71
2022/12/26 09:47:59;;;;;;;1.03;0.83;;;13.40;99.90;13.40;100195.00;;;;4873397;28;89998;-69
2022/12/26 09:50:35;;;;;;;2.40;1.07;;;13.40;99.90;13.40;100180.00;;;;4908270;28;88141;-70
2022/12/26 09:53:11;;;;;;;2.20;1.20;;;13.40;99.90;13.40;100185.00;;;;4893379;28;88013;-71
2022/12/26 09:55:45;;;;;;;3.20;1.10;;;13.40;99.90;13.30;100184.00;;;;4884855;28;88362;-71
2022/12/26 09:58:26;;;;;;;0.70;0.57;;;13.40;99.90;13.20;100188.00;;;;4891740;28;99132;-68
2022/12/26 10:01:19;;;;;;;0.77;0.70;;;13.20;99.90;13.00;100179.00;;;;4913060;28;88374;-70
2022/12/26 10:03:51;;;;;;;1.47;0.80;;;13.10;99.90;13.00;100162.00;;;;4906670;28;88706;-70
2022/12/26 10:06:38;;;;;;;0.97;0.83;;;13.00;99.90;13.00;100169.00;;;;4890966;28;87625;-68
2022/12/26 10:09:41;;;;;;;0.73;0.73;;;13.00;99.90;13.00;100179.00;;;;4888711;28;88151;-70
2022/12/26 10:12:28;;;;;;;1.33;1.00;;;13.00;99.90;12.90;100180.00;;;;4903366;28;88084;-70
2022/12/26 10:15:14;;;;;;;5.17;1.23;;;13.00;99.90;12.90;100171.00;;;;4909619;28;87909;-70
2022/12/26 10:17:49;;;;;;;0.87;0.70;;;12.90;99.90;12.90;100182.00;;;;4890070;28;88197;-71
2022/12/26 10:20:37;;;;;;;0.93;0.87;;;12.90;99.90;13.00;100173.00;;;;4893586;28;100695;-69
2022/12/26 10:23:37;;;;;;;4.00;1.40;;;13.00;99.90;13.10;100175.00;;;;4895873;28;102799;-70
2022/12/26 10:26:22;;;;;;;1.73;0.80;;;13.10;99.90;13.30;100168.00;;;;4907179;28;89095;-70
2022/12/26 10:29:11;;;;;;;0.90;0.80;;;13.30;99.90;13.40;100167.00;;;;4906880;28;87998;-70
2022/12/26 10:31:53;;;;;;;3.20;1.20;;;13.40;99.90;13.50;100172.00;;;;4891099;28;88940;-72
2022/12/26 10:34:27;;;;;;;1.50;0.57;;;13.50;99.90;13.60;100180.00;;;;4906759;28;106025;-71
2022/12/26 10:37:26;;;;;;;1.83;1.03;;;13.60;99.90;13.70;100178.00;;;;4909351;28;88382;-71
2022/12/26 10:40:13;;;;;;;1.33;0.85;;;13.70;99.90;13.70;100175.00;;;;4905209;28;89219;-70
2022/12/26 10:42:42;;;;;;;1.20;0.95;;;14.60;99.90;13.70;100175.00;;;;4905179;28;88933;-68
2022/12/26 10:45:27;;;;;;;1.10;0.80;;;13.70;99.90;13.70;100171.00;;;;4880457;28;88094;-69
2022/12/26 10:47:53;;;;;;;2.27;1.10;;;13.70;99.90;13.70;100175.00;;;;4888818;28;102487;-68
2022/12/26 10:50:24;;;;;;;1.03;1.03;;;13.70;99.90;13.70;100177.00;;;;4887666;28;116578;-70
2022/12/26 10:52:49;;;;;;;1.53;1.00;;;13.70;99.90;13.70;100171.00;;;;4892285;28;109484;-69
2022/12/26 10:55:19;;;;;;;1.65;0.73;;;13.70;99.90;13.60;100173.00;;;;4904880;28;108756;-70
2022/12/26 10:57:49;;;;;;;1.08;1.00;;;13.60;99.90;13.60;100167.00;;;;4909184;28;88987;-71
2022/12/26 11:00:22;;;;;;;1.33;1.03;;;13.60;99.90;13.50;100163.00;;;;4888710;28;88220;-68
2022/12/26 11:03:09;;;;;;;3.13;1.10;;;13.60;99.90;13.50;100175.00;;;;4890626;28;92164;-69
2022/12/26 11:05:42;;;;;;;0.80;0.80;;;13.50;99.90;13.40;100177.00;;;;4907623;28;88178;-69
2022/12/26 11:08:19;;;;;;;0.83;0.73;;;13.40;99.90;13.30;100170.00;;;;4895055;28;88001;-69
2022/12/26 11:11:02;;;;;;;2.13;0.90;;;13.40;99.90;13.30;100164.00;;;;4907705;28;87852;-73
2022/12/26 11:13:38;;;;;;;2.00;1.40;;;13.30;99.90;13.20;100179.00;;;;4910028;28;87217;-69
2022/12/26 11:16:04;;;;;;;1.67;1.03;;;13.20;99.90;13.10;100182.00;;;;4917917;28;94323;-69
2022/12/26 11:18:39;;;;;;;0.93;0.80;;;13.20;99.90;13.00;100177.00;;;;4910924;28;87873;-69
2022/12/26 11:21:18;;;;;;;1.60;1.20;;;13.10;99.90;12.90;100177.00;;;;4909411;28;88057;-69
2022/12/26 11:24:06;;;;;;;1.60;1.20;;;13.00;99.90;12.70;100184.00;;;;4907243;28;89893;-70
2022/12/26 11:26:32;;;;;;;2.60;1.20;;;12.80;99.90;12.60;100190.00;;;;4910303;28;93294;-70
2022/12/26 11:29:11;;;;;;;1.60;0.93;;;12.70;99.90;12.50;100186.00;;;;4890125;28;108843;-68
2022/12/26 11:31:43;;;;;;;1.50;1.00;;;12.60;99.90;12.50;100186.00;;;;4903326;28;108972;-70
2022/12/26 11:34:16;;;;;;;2.63;1.23;;;12.50;99.90;12.50;100187.00;;;;4885648;28;88418;-68
2022/12/26 11:36:48;;;;;;;3.03;0.77;;;12.50;99.90;12.50;100176.00;;;;4903142;28;96298;-71
2022/12/26 11:39:27;;;;;;;0.70;0.70;;;12.50;99.90;12.50;100178.00;;;;4879156;28;88047;-70
2022/12/26 11:41:53;;;;;;;2.57;1.17;;;12.50;99.90;12.50;100193.00;;;;4885654;28;104373;-70
2022/12/26 11:44:26;;;;;;;2.07;1.27;;;12.50;99.90;12.50;100183.00;;;;4885578;28;87934;-68
2022/12/26 11:47:12;;;;;;;0.60;0.60;;;12.50;99.90;12.50;100191.00;;;;4904333;28;97909;-71
2022/12/26 11:49:55;;;;;;;0.90;0.70;;;12.50;99.90;12.40;100198.00;;;;4900867;28;88890;-69
2022/12/26 11:52:36;;;;;;;0.97;0.90;;;12.50;99.90;12.20;100188.00;;;;4889024;28;89496;-68
2022/12/26 11:55:25;;;;;;;1.63;1.03;;;13.60;99.90;12.10;100188.00;;;;4904334;28;88304;-69
2022/12/26 11:58:07;;;;;;;2.23;1.80;;;12.30;99.90;12.10;100183.00;;;;4904614;28;87720;-69
2022/12/26 12:01:01;;;;;;;1.10;1.00;;;12.20;99.90;12.00;100181.00;;;;4906027;28;87763;-70
2022/12/26 12:03:46;;;;;;;2.37;1.47;;;12.10;99.90;12.00;100183.00;;;;4889801;28;118184;-69
2022/12/26 12:06:48;;;;;;;2.40;1.17;;;12.10;99.90;12.00;100179.00;;;;4892052;28;88045;-68
2022/12/26 12:09:40;;;;;;;3.30;0.80;;;12.10;99.90;12.00;100174.00;;;;4885828;28;87369;-69
2022/12/26 12:12:23;;;;;;;2.33;1.50;;;12.10;99.90;12.00;100174.00;;;;4872506;28;93659;-70
2022/12/26 12:15:11;;;;;;;1.43;0.93;;;12.10;99.90;12.00;100171.00;;;;4905993;28;93513;-72
2022/12/26 12:18:18;;;;;;;0.83;0.80;;;12.10;99.90;11.90;100175.00;;;;4880245;28;89308;-71
2022/12/26 12:21:27;;;;;;;9.47;1.57;;;12.10;99.90;11.80;100164.00;;;;4891621;28;87818;-69
2022/12/26 12:24:27;;;;;;;2.50;1.53;;;12.00;99.90;11.80;100159.00;;;;4891080;28;87796;-72
2022/12/26 12:27:17;;;;;;;6.33;1.50;;;11.80;99.90;11.80;100175.00;;;;4907401;28;88196;-68
2022/12/26 12:30:50;;;;;;;2.73;1.00;;;11.80;99.90;11.70;100169.00;;;;4900945;28;87511;-72
2022/12/26 12:33:46;;;;;;;1.73;1.07;;;11.80;99.90;11.70;100180.00;;;;4765927;28;88210;-70
2022/12/26 12:36:17;;;;;;;1.87;1.33;;;11.80;99.90;11.70;100164.00;;;;4903070;28;94477;-72
2022/12/26 12:39:11;;;;;;;0.90;0.80;;;11.80;99.90;11.60;100175.00;;;;4885789;28;87365;-71
2022/12/26 12:42:25;;;;;;;0.63;0.57;;;11.80;99.90;11.60;100192.00;;;;4888297;28;87924;-75
2022/12/26 12:45:02;;;;;;;1.30;1.20;;;11.70;99.90;11.50;100198.00;;;;4888092;28;88622;-75
2022/12/26 12:48:06;;;;;;;1.90;0.90;;;11.60;99.90;11.20;100205.00;;;;4901550;28;88916;-72
2022/12/26 12:51:00;;;;;;;5.10;0.70;;;11.40;99.90;10.90;100197.00;;;;4871354;28;88097;-71
2022/12/26 12:53:50;;;;;;;0.87;0.73;;;11.20;99.90;10.70;100204.00;;;;4903778;28;88480;-71
2022/12/26 12:56:46;;;;;;;1.00;0.90;;;11.00;99.90;10.60;100210.00;;;;4897805;28;90530;-70
2022/12/26 12:59:46;;;;;;;0.23;0.20;;;10.80;99.90;10.40;100205.00;;;;4878904;28;89452;-72
2022/12/26 13:02:34;;;;;;;1.90;0.47;;;10.60;99.90;10.30;100202.00;;;;4902608;28;87970;-72
2022/12/26 13:05:32;;;;;;;0.30;0.30;;;10.50;99.90;10.20;100204.00;;;;4872964;28;89666;-73
2022/12/26 13:08:09;;;;;;;0.63;0.57;;;10.40;99.90;10.10;100214.00;;;;4887170;28;93490;-72
2022/12/26 13:10:45;;;;;;;0.47;0.47;;;10.30;99.90;10.10;100227.00;;;;4898207;28;89275;-71
2022/12/26 13:13:37;;;;;;;1.00;0.80;;;10.20;99.90;10.10;100228.00;;;;4878094;28;102732;-72
2022/12/26 13:16:17;;;;;;;0.70;0.70;;;10.20;99.90;10.10;100221.00;;;;4864831;28;109781;-71
2022/12/26 13:19:05;;;;;;;2.23;1.17;;;10.20;99.90;10.00;100229.00;;;;4875599;28;87836;-71
2022/12/26 13:21:36;;;;;;;1.40;0.90;;;10.20;99.90;10.10;100235.00;;;;4876439;28;88323;-72
2022/12/26 13:24:24;;;;;;;1.00;0.83;;;10.10;99.90;10.10;100237.00;;;;4904374;28;88187;-71
2022/12/26 13:26:53;;;;;;;1.20;0.70;;;10.10;99.90;10.10;100241.00;;;;4878291;28;87935;-71